createdAt,value
2022-08-22T00:01:27.743Z,19.03
2022-08-22T00:03:11.649Z,19.35
2022-08-22T00:11:44.601Z,19.09
2022-08-22T00:21:56.653Z,19.16
2022-08-22T00:32:09.072Z,19.03
2022-08-22T00:42:40.102Z,18.76
2022-08-22T00:53:08.265Z,18.68
2022-08-22T01:03:41.410Z,18.71
2022-08-22T01:13:59.947Z,18.50
2022-08-22T01:25:02.637Z,18.33
2022-08-22T01:35:37.482Z,18.18
2022-08-22T01:45:58.331Z,18.07
2022-08-22T01:56:10.492Z,17.96
2022-08-22T02:06:18.110Z,17.81
2022-08-22T02:16:33.009Z,17.66
2022-08-22T02:26:51.127Z,17.30
2022-08-22T02:36:59.760Z,17.35
2022-08-22T02:47:10.197Z,17.26
2022-08-22T02:57:20.025Z,17.25
2022-08-22T03:07:37.134Z,17.26
2022-08-22T03:17:50.529Z,17.24
2022-08-22T03:28:00.081Z,17.35
2022-08-22T03:38:24.584Z,17.43
2022-08-22T03:49:03.797Z,17.38
2022-08-22T03:59:30.323Z,17.29
2022-08-22T04:09:52.197Z,17.32
2022-08-22T04:20:27.207Z,17.25
2022-08-22T04:30:35.819Z,17.10
2022-08-22T04:40:44.838Z,17.24
2022-08-22T04:50:54.913Z,17.21
2022-08-22T05:01:05.797Z,17.52
2022-08-22T05:11:11.805Z,17.80
2022-08-22T05:21:18.630Z,18.06
2022-08-22T05:31:26.914Z,18.40
2022-08-22T05:41:36.318Z,18.73
2022-08-22T05:51:48.333Z,18.97
2022-08-22T06:02:03.669Z,19.00
2022-08-22T06:12:21.602Z,18.96
2022-08-22T06:22:29.394Z,19.02
2022-08-22T06:32:58.414Z,19.47
2022-08-22T06:43:00.991Z,19.90
2022-08-22T06:53:09.778Z,20.02
2022-08-22T07:03:21.246Z,20.11
2022-08-22T07:13:25.910Z,20.34
2022-08-22T07:23:34.910Z,20.58
2022-08-22T07:33:45.145Z,20.76
2022-08-22T07:43:52.557Z,21.04
2022-08-22T07:54:01.000Z,21.04
2022-08-22T08:04:09.666Z,21.24
2022-08-22T08:14:15.455Z,21.37
2022-08-22T08:24:23.932Z,21.67
2022-08-22T08:34:28.580Z,21.92
2022-08-22T08:44:52.093Z,22.24
2022-08-22T08:55:15.906Z,22.73
2022-08-22T09:05:52.442Z,23.00
2022-08-22T09:16:14.327Z,23.47
2022-08-22T09:26:25.103Z,23.91
2022-08-22T09:36:34.164Z,24.14
2022-08-22T09:47:02.862Z,24.44
2022-08-22T09:57:27.463Z,24.84
2022-08-22T10:07:52.688Z,24.69
2022-08-22T10:18:06.185Z,24.49
2022-08-22T10:28:28.707Z,24.78
2022-08-22T10:38:46.350Z,24.62
2022-08-22T10:48:53.168Z,24.49
2022-08-22T10:59:02.451Z,25.04
2022-08-22T11:09:23.464Z,25.58
2022-08-22T11:19:44.918Z,26.11
2022-08-22T11:29:57.758Z,26.67
2022-08-22T11:40:14.450Z,27.45
2022-08-22T11:50:34.610Z,27.66
2022-08-22T12:00:48.568Z,32.49
2022-08-22T12:11:00.700Z,31.01
2022-08-22T12:21:23.717Z,28.10
2022-08-22T12:31:43.638Z,27.69
2022-08-22T12:42:08.740Z,27.32
2022-08-22T12:52:29.374Z,28.12
2022-08-22T13:02:36.026Z,28.05
2022-08-22T13:12:47.165Z,27.54
2022-08-22T13:22:50.140Z,28.98
2022-08-22T13:33:10.258Z,28.21
2022-08-22T13:43:22.188Z,27.82
2022-08-22T13:53:32.858Z,28.26
2022-08-22T14:03:41.780Z,28.08
2022-08-22T14:13:53.703Z,27.61
2022-08-22T14:24:01.086Z,27.55
2022-08-22T14:34:10.450Z,27.30
2022-08-22T14:44:19.825Z,26.98
2022-08-22T14:54:28.929Z,26.64
2022-08-22T15:04:36.245Z,26.47
2022-08-22T15:14:52.399Z,26.19
2022-08-22T15:24:57.982Z,25.88
2022-08-22T15:35:08.551Z,25.95
2022-08-22T15:45:22.429Z,25.81
2022-08-22T15:55:28.311Z,25.91
2022-08-22T16:05:44.162Z,25.93
2022-08-22T16:15:58.938Z,25.88
2022-08-22T16:26:10.213Z,25.36
2022-08-22T16:36:37.427Z,25.13
2022-08-22T16:46:43.574Z,25.02
2022-08-22T16:57:09.329Z,24.59
2022-08-22T17:07:32.918Z,24.65
2022-08-22T17:17:41.169Z,24.33
2022-08-22T17:27:46.197Z,24.21
2022-08-22T17:38:02.191Z,24.03
2022-08-22T17:48:09.281Z,23.86
2022-08-22T17:58:33.598Z,23.68
2022-08-22T18:19:18.428Z,23.20
2022-08-22T18:29:25.540Z,23.05
2022-08-22T18:39:33.944Z,22.78
2022-08-22T18:49:48.286Z,22.54
2022-08-22T19:00:06.632Z,22.37
2022-08-22T19:10:41.505Z,22.24
2022-08-22T19:21:37.705Z,22.14
2022-08-22T19:31:48.261Z,21.95
2022-08-22T19:41:57.024Z,21.92
2022-08-22T19:52:14.647Z,21.67
2022-08-22T20:02:33.429Z,21.47
2022-08-22T20:12:46.975Z,21.30
2022-08-22T20:22:56.615Z,21.22
2022-08-22T20:33:06.758Z,21.10
2022-08-22T20:43:23.890Z,21.04
2022-08-22T20:53:26.654Z,20.96
2022-08-22T21:03:39.637Z,20.85
2022-08-22T21:13:42.564Z,20.79
2022-08-22T21:23:49.237Z,20.39
2022-08-22T21:33:54.884Z,20.06
2022-08-22T21:44:18.856Z,19.75
2022-08-22T21:54:39.920Z,19.71
2022-08-22T22:04:44.002Z,19.84
2022-08-22T22:14:49.821Z,19.75
2022-08-22T22:24:53.855Z,19.59
2022-08-22T22:34:56.547Z,19.61
2022-08-22T22:45:00.649Z,19.69
2022-08-22T22:55:03.416Z,19.63
2022-08-22T23:05:10.759Z,19.53
2022-08-22T23:15:14.074Z,19.36
2022-08-22T23:25:18.427Z,19.42
2022-08-22T23:35:21.119Z,19.37
2022-08-22T23:45:25.379Z,19.40
2022-08-22T23:55:28.094Z,19.29
